Terminal Aerodrome Forecast
Issued by NWS Sioux Falls, SD

Home | Current Version | Previous Version | Text Only | Print | Product List | Glossary On
Versions: 1 2 3 4 5 6 7 8 9 10 11 12 13
273
FTUS43 KFSD 211125
TAFHON
TAF
KHON 211125Z 2112/2212 32012KT P6SM OVC015
     FM211400 32012G18KT P6SM BKN025
     FM211700 32015G23KT P6SM BKN035
     FM212000 32016G24KT P6SM SCT090
     FM220000 32007KT P6SM BKN100
     FM220400 22005KT P6SM SCT140=

USA.gov is the U.S. government's official web portal to all federal, state and local government web resources and services.